Time;durP1;ratioP1;P1;durP2;ratioP2;P2;SDS_P1;SDS_P2;PMS_P1;PMS_P2;Temp;Humidity;BMP_temperature;BMP_pressure;BME280_temperature;BME280_humidity;BME280_pressure;Samples;Min_cycle;Max_cycle;Signal;HPM_P1;HPM_P2
2023/07/12 00:01:11;;;;;;;2.17;1.63;;;31.00;46.60;;;;;;5149559;27;45243;-73
2023/07/12 00:03:38;;;;;;;2.30;1.30;;;31.00;46.80;;;;;;5149716;27;45217;-73
2023/07/12 00:06:10;;;;;;;1.73;1.20;;;31.00;47.20;;;;;;5149980;27;45391;-73
2023/07/12 00:08:36;;;;;;;1.33;1.20;;;31.00;47.20;;;;;;5149556;27;47317;-73
2023/07/12 00:11:05;;;;;;;1.95;1.60;;;30.90;47.30;;;;;;5149479;27;45314;-72
2023/07/12 00:13:31;;;;;;;1.45;1.33;;;30.90;47.30;;;;;;5149493;27;45330;-73
2023/07/12 00:15:58;;;;;;;2.25;1.35;;;30.90;47.20;;;;;;5149824;27;45303;-73
2023/07/12 00:18:26;;;;;;;1.95;1.10;;;30.90;47.30;;;;;;5149185;27;48404;-73
2023/07/12 00:20:53;;;;;;;1.60;1.20;;;30.90;47.40;;;;;;5149403;27;45486;-73
2023/07/12 00:23:20;;;;;;;3.42;1.30;;;30.90;47.20;;;;;;5149599;27;45285;-73
2023/07/12 00:25:48;;;;;;;2.45;1.45;;;30.80;47.20;;;;;;5149627;27;45260;-73
2023/07/12 00:28:21;;;;;;;1.55;1.00;;;30.80;47.80;;;;;;5148461;27;46535;-73
2023/07/12 00:30:48;;;;;;;2.03;1.25;;;30.80;47.20;;;;;;5148494;27;45153;-73
2023/07/12 00:33:15;;;;;;;2.85;1.48;;;30.70;47.00;;;;;;5148439;27;45268;-73
2023/07/12 00:35:43;;;;;;;1.98;1.20;;;30.70;47.00;;;;;;5149101;27;45461;-73
2023/07/12 00:38:13;;;;;;;3.20;1.40;;;30.70;46.90;;;;;;5149145;27;45300;-73
2023/07/12 00:41:03;;;;;;;3.13;1.30;;;30.70;46.80;;;;;;5149081;27;45173;-72
2023/07/12 00:43:36;;;;;;;2.08;1.40;;;30.70;47.10;;;;;;5149140;27;45394;-72
2023/07/12 00:46:05;;;;;;;1.48;1.17;;;30.70;47.10;;;;;;5149289;27;45373;-72
2023/07/12 00:48:32;;;;;;;1.98;1.55;;;30.60;46.90;;;;;;5149101;27;45259;-73
2023/07/12 00:50:59;;;;;;;1.40;1.30;;;30.60;47.00;;;;;;5148861;27;45194;-72
2023/07/12 00:53:26;;;;;;;2.65;1.50;;;30.60;47.00;;;;;;5149027;27;45281;-73
2023/07/12 00:56:02;;;;;;;1.55;1.20;;;30.60;47.00;;;;;;5149065;27;45300;-73
2023/07/12 00:58:33;;;;;;;2.30;1.40;;;30.50;47.00;;;;;;5148769;27;46748;-73
2023/07/12 01:01:00;;;;;;;1.85;1.67;;;30.50;46.90;;;;;;5148819;27;45264;-73
2023/07/12 01:03:27;;;;;;;1.50;1.40;;;30.50;47.20;;;;;;5148863;27;45358;-73
2023/07/12 01:05:54;;;;;;;2.67;1.65;;;30.50;47.00;;;;;;5148974;27;45299;-73
2023/07/12 01:08:21;;;;;;;2.13;1.40;;;30.50;47.10;;;;;;5148571;27;46421;-73
2023/07/12 01:10:48;;;;;;;2.53;1.40;;;30.40;47.00;;;;;;5148562;27;45240;-73
2023/07/12 01:13:14;;;;;;;1.30;1.23;;;30.40;47.20;;;;;;5148793;27;45251;-73
2023/07/12 01:15:43;;;;;;;2.35;1.45;;;30.40;47.00;;;;;;5148823;27;45371;-73
2023/07/12 01:18:09;;;;;;;2.20;1.50;;;30.40;47.10;;;;;;5148570;27;45343;-73
2023/07/12 01:20:36;;;;;;;1.98;1.40;;;30.40;47.20;;;;;;5148473;27;45438;-73
2023/07/12 01:23:05;;;;;;;2.88;1.52;;;30.40;47.20;;;;;;5148639;27;45375;-73
2023/07/12 01:25:36;;;;;;;1.80;1.50;;;30.30;47.10;;;;;;5148763;27;45304;-73
2023/07/12 01:28:03;;;;;;;1.77;1.33;;;30.30;47.20;;;;;;5148545;27;46673;-73
2023/07/12 01:30:30;;;;;;;1.73;1.40;;;30.30;47.10;;;;;;5148451;27;45273;-73
2023/07/12 01:32:57;;;;;;;2.60;1.60;;;30.30;47.10;;;;;;5147812;27;45283;-73
2023/07/12 01:35:24;;;;;;;1.95;1.75;;;30.30;47.30;;;;;;5148517;27;45389;-73
2023/07/12 01:37:50;;;;;;;1.60;1.50;;;30.20;47.30;;;;;;5148245;27;45441;-73
2023/07/12 01:40:19;;;;;;;2.75;1.90;;;30.20;47.30;;;;;;5148246;27;45266;-73
2023/07/12 01:42:46;;;;;;;1.40;1.30;;;30.20;47.20;;;;;;5148164;27;45260;-73
2023/07/12 01:45:13;;;;;;;2.08;1.55;;;30.20;47.20;;;;;;5149804;27;45365;-73
2023/07/12 01:47:40;;;;;;;1.75;1.58;;;30.20;47.50;;;;;;5151791;27;45603;-73
2023/07/12 01:50:07;;;;;;;3.70;1.73;;;30.10;47.40;;;;;;5151939;27;45339;-74
2023/07/12 01:52:34;;;;;;;1.88;1.50;;;30.10;47.30;;;;;;5151807;27;45472;-73
2023/07/12 01:55:02;;;;;;;1.92;1.77;;;30.10;48.00;;;;;;5152114;27;45290;-73
2023/07/12 01:57:30;;;;;;;1.63;1.52;;;30.10;47.40;;;;;;5151414;27;46657;-73
2023/07/12 01:59:57;;;;;;;1.73;1.63;;;30.10;47.50;;;;;;5151585;27;45419;-73
2023/07/12 02:02:23;;;;;;;1.95;1.70;;;30.10;47.70;;;;;;5151771;27;45417;-73
2023/07/12 02:04:50;;;;;;;2.17;1.75;;;30.10;47.60;;;;;;5151795;27;45431;-72
2023/07/12 02:07:17;;;;;;;2.58;1.60;;;30.10;47.50;;;;;;5151526;27;46346;-73
2023/07/12 02:10:05;;;;;;;2.85;1.83;;;30.10;47.50;;;;;;5151612;27;45287;-72
2023/07/12 02:12:33;;;;;;;3.42;1.80;;;30.00;47.60;;;;;;5151498;27;45377;-73
2023/07/12 02:15:00;;;;;;;1.88;1.60;;;30.00;47.60;;;;;;5151693;27;45399;-73
2023/07/12 02:17:27;;;;;;;1.60;1.50;;;30.00;47.40;;;;;;5151258;27;45217;-73
2023/07/12 02:19:54;;;;;;;2.38;1.70;;;30.00;47.60;;;;;;5151298;27;45327;-73
2023/07/12 02:22:21;;;;;;;3.20;1.90;;;30.00;47.60;;;;;;5151433;27;45278;-73
2023/07/12 02:24:47;;;;;;;2.92;1.90;;;30.00;47.60;;;;;;5150772;27;45457;-73
2023/07/12 02:27:14;;;;;;;2.08;1.50;;;29.90;47.50;;;;;;5150831;27;45318;-72
2023/07/12 02:29:42;;;;;;;3.45;2.13;;;29.90;47.70;;;;;;5151259;27;45245;-73
2023/07/12 02:32:09;;;;;;;2.95;2.17;;;29.80;47.70;;;;;;5151365;27;45360;-72
2023/07/12 02:34:36;;;;;;;4.35;2.08;;;29.80;47.80;;;;;;5151230;27;45434;-73
2023/07/12 02:37:03;;;;;;;1.85;1.75;;;29.80;48.10;;;;;;5151042;27;46369;-72
2023/07/12 02:39:30;;;;;;;2.47;1.48;;;29.80;48.50;;;;;;5150989;27;45290;-73
2023/07/12 02:41:56;;;;;;;2.05;1.50;;;29.80;48.00;;;;;;5150941;27;45349;-73
2023/07/12 02:44:23;;;;;;;2.65;1.65;;;29.80;48.00;;;;;;5151284;27;45424;-73
2023/07/12 02:46:51;;;;;;;1.58;1.48;;;29.80;48.00;;;;;;5150978;27;45744;-73
2023/07/12 02:49:19;;;;;;;1.73;1.48;;;29.80;47.80;;;;;;5151081;27;45384;-73
2023/07/12 02:51:46;;;;;;;2.13;1.48;;;29.70;47.80;;;;;;5150684;27;45272;-73
2023/07/12 02:54:13;;;;;;;2.75;2.00;;;29.70;47.90;;;;;;5151126;27;45300;-72
2023/07/12 02:56:41;;;;;;;2.58;2.05;;;29.70;48.10;;;;;;5149651;27;45446;-73
2023/07/12 02:59:07;;;;;;;2.20;1.90;;;29.70;48.60;;;;;;5150880;27;45377;-72
2023/07/12 03:01:34;;;;;;;2.83;1.50;;;29.70;48.20;;;;;;5150737;27;45314;-72
2023/07/12 03:04:03;;;;;;;2.95;2.00;;;29.70;47.90;;;;;;5150770;27;45407;-73
2023/07/12 03:06:30;;;;;;;1.65;1.55;;;29.60;47.90;;;;;;5150867;27;46369;-73
2023/07/12 03:08:57;;;;;;;3.45;1.58;;;29.60;47.90;;;;;;5150580;27;45327;-72
2023/07/12 03:11:23;;;;;;;1.88;1.58;;;29.60;47.90;;;;;;5150131;27;45319;-73
2023/07/12 03:13:50;;;;;;;2.78;1.55;;;29.60;48.10;;;;;;5150777;27;45264;-72
2023/07/12 03:16:17;;;;;;;2.47;1.70;;;29.50;48.10;;;;;;5150384;27;47304;-73
2023/07/12 03:18:44;;;;;;;2.05;1.60;;;29.50;48.00;;;;;;5150407;27;45322;-72
2023/07/12 03:21:12;;;;;;;1.70;1.40;;;29.50;47.90;;;;;;5150500;27;45345;-72
2023/07/12 03:23:39;;;;;;;2.03;1.80;;;29.50;47.90;;;;;;5150648;27;45302;-73
2023/07/12 03:26:06;;;;;;;2.35;1.60;;;29.50;47.80;;;;;;5150060;27;46376;-72
2023/07/12 03:28:33;;;;;;;2.00;1.80;;;29.50;47.70;;;;;;5150843;27;45387;-72
2023/07/12 03:31:00;;;;;;;2.75;1.98;;;29.50;47.70;;;;;;5150351;27;45314;-72
2023/07/12 03:33:27;;;;;;;2.15;1.70;;;29.40;47.60;;;;;;5150324;27;45418;-72
2023/07/12 03:35:54;;;;;;;2.47;1.95;;;29.40;47.70;;;;;;5150198;27;45536;-72
2023/07/12 03:38:24;;;;;;;2.00;1.80;;;29.40;47.50;;;;;;5150209;27;45317;-72
2023/07/12 03:40:51;;;;;;;1.55;1.40;;;29.40;47.60;;;;;;5150271;27;45276;-72
2023/07/12 03:43:18;;;;;;;1.92;1.67;;;29.40;48.10;;;;;;5150321;27;45316;-73
2023/07/12 03:45:45;;;;;;;4.18;1.65;;;29.40;47.70;;;;;;5149842;27;46283;-72
2023/07/12 03:48:12;;;;;;;1.85;1.60;;;29.40;47.50;;;;;;5150021;27;45264;-72
2023/07/12 03:50:39;;;;;;;1.63;1.52;;;29.40;47.60;;;;;;5149999;27;45340;-72
2023/07/12 03:53:05;;;;;;;1.85;1.75;;;29.40;47.70;;;;;;5149998;27;45313;-72
2023/07/12 03:55:34;;;;;;;3.10;1.90;;;29.30;47.50;;;;;;5149749;27;45425;-72
2023/07/12 03:58:01;;;;;;;3.30;1.80;;;29.30;47.50;;;;;;5149066;27;45253;-72
2023/07/12 04:00:28;;;;;;;2.38;2.00;;;29.30;47.60;;;;;;5149942;27;45312;-72
2023/07/12 04:02:55;;;;;;;1.73;1.60;;;29.30;47.60;;;;;;5149730;27;45441;-72
2023/07/12 04:05:21;;;;;;;1.92;1.73;;;29.30;47.70;;;;;;5149475;27;46734;-72
2023/07/12 04:07:48;;;;;;;3.45;1.85;;;29.30;47.70;;;;;;5149472;27;45381;-72
2023/07/12 04:10:15;;;;;;;2.25;2.00;;;29.30;47.60;;;;;;5149629;27;45390;-72
2023/07/12 04:12:43;;;;;;;4.10;1.98;;;29.30;47.50;;;;;;5149977;27;45172;-72
2023/07/12 04:15:11;;;;;;;2.58;1.88;;;29.30;47.60;;;;;;5149224;27;45315;-72
2023/07/12 04:17:38;;;;;;;1.77;1.60;;;29.30;47.50;;;;;;5149388;27;45625;-72
2023/07/12 04:20:06;;;;;;;2.35;1.98;;;29.30;47.40;;;;;;5149657;27;45345;-72
2023/07/12 04:22:33;;;;;;;3.20;2.00;;;29.30;47.40;;;;;;5149616;27;45398;-72
2023/07/12 04:25:00;;;;;;;2.15;1.90;;;29.30;47.50;;;;;;5149224;27;46411;-72
2023/07/12 04:27:27;;;;;;;2.40;2.00;;;29.30;47.50;;;;;;5149348;27;45323;-72
2023/07/12 04:29:55;;;;;;;3.65;1.73;;;29.30;47.60;;;;;;5149710;27;45209;-72
2023/07/12 04:32:22;;;;;;;2.80;1.85;;;29.30;47.60;;;;;;5149562;27;45241;-72
2023/07/12 04:34:49;;;;;;;2.00;1.75;;;29.20;47.70;;;;;;5149135;27;46885;-72
2023/07/12 04:37:17;;;;;;;2.20;2.00;;;29.20;47.70;;;;;;5149022;27;45339;-72
2023/07/12 04:39:44;;;;;;;2.58;2.10;;;29.30;47.60;;;;;;5149407;27;45446;-73
2023/07/12 04:42:11;;;;;;;2.08;1.88;;;29.20;47.50;;;;;;5149355;27;45414;-72
2023/07/12 04:44:38;;;;;;;2.42;2.08;;;29.20;47.50;;;;;;5148086;27;45431;-72
2023/07/12 04:47:07;;;;;;;2.55;2.08;;;29.20;47.50;;;;;;5148927;27;45371;-72
2023/07/12 04:49:34;;;;;;;2.55;1.95;;;29.20;47.50;;;;;;5149476;27;45325;-72
2023/07/12 04:52:00;;;;;;;1.88;1.77;;;29.20;47.60;;;;;;5148898;27;45427;-72
2023/07/12 04:54:27;;;;;;;1.90;1.70;;;29.20;47.50;;;;;;5148898;27;45237;-72
2023/07/12 04:56:54;;;;;;;2.45;2.25;;;29.20;47.40;;;;;;5148810;27;45402;-72
2023/07/12 04:59:21;;;;;;;2.78;2.10;;;29.20;47.50;;;;;;5148861;27;45233;-72
2023/07/12 05:01:48;;;;;;;2.80;2.00;;;29.20;47.50;;;;;;5149298;27;45468;-72
2023/07/12 05:04:16;;;;;;;2.20;1.92;;;29.20;47.50;;;;;;5148394;27;45461;-72
2023/07/12 05:06:44;;;;;;;2.60;1.95;;;29.20;47.70;;;;;;5148947;27;45126;-72
2023/07/12 05:09:11;;;;;;;2.00;1.83;;;29.20;47.60;;;;;;5148889;27;45331;-73
2023/07/12 05:11:38;;;;;;;2.20;2.03;;;29.20;47.50;;;;;;5148988;27;45362;-72
2023/07/12 05:14:04;;;;;;;2.75;2.15;;;29.20;47.60;;;;;;5148535;27;46686;-72
2023/07/12 05:16:31;;;;;;;2.58;2.03;;;29.10;47.50;;;;;;5148662;27;45351;-72
2023/07/12 05:18:58;;;;;;;2.97;2.00;;;29.10;47.50;;;;;;5148578;27;45141;-72
2023/07/12 05:21:26;;;;;;;2.50;2.00;;;29.10;47.50;;;;;;5148336;27;45358;-72
2023/07/12 05:23:53;;;;;;;2.10;1.95;;;29.10;47.50;;;;;;5148298;27;46430;-72
2023/07/12 05:26:20;;;;;;;2.47;1.80;;;29.10;47.70;;;;;;5148431;27;45261;-72
2023/07/12 05:28:47;;;;;;;2.17;1.98;;;29.10;47.70;;;;;;5148448;27;45264;-74
2023/07/12 05:31:14;;;;;;;2.53;1.98;;;29.10;47.70;;;;;;5148005;27;45520;-72
2023/07/12 05:33:43;;;;;;;2.28;1.92;;;29.10;47.70;;;;;;5148018;27;45340;-72
2023/07/12 05:36:09;;;;;;;2.38;2.20;;;29.00;47.70;;;;;;5148407;27;45347;-73
2023/07/12 05:38:37;;;;;;;2.45;2.22;;;29.10;47.70;;;;;;5148658;27;45280;-73
2023/07/12 05:41:05;;;;;;;2.45;2.25;;;29.00;47.70;;;;;;5148620;27;45455;-72
2023/07/12 05:43:33;;;;;;;2.72;2.10;;;29.10;47.90;;;;;;5148209;27;45725;-72
2023/07/12 05:46:00;;;;;;;5.10;2.08;;;29.10;47.80;;;;;;5148175;27;45285;-72
2023/07/12 05:48:27;;;;;;;3.33;2.15;;;29.00;47.60;;;;;;5148634;27;45242;-72
2023/07/12 05:50:54;;;;;;;3.22;1.80;;;29.10;47.60;;;;;;5148503;27;45228;-72
2023/07/12 05:53:21;;;;;;;2.92;1.83;;;29.00;47.80;;;;;;5147865;27;46388;-72
2023/07/12 05:55:54;;;;;;;3.15;2.22;;;29.00;47.90;;;;;;5148324;27;45382;-72
2023/07/12 05:58:20;;;;;;;2.47;2.13;;;29.00;47.80;;;;;;5148171;27;45404;-73
2023/07/12 06:00:47;;;;;;;4.18;2.20;;;29.00;47.70;;;;;;5148406;27;45219;-72
2023/07/12 06:03:14;;;;;;;3.05;1.92;;;29.00;47.70;;;;;;5148113;27;47335;-72
2023/07/12 06:05:44;;;;;;;2.45;2.25;;;29.00;47.80;;;;;;5147940;27;45196;-72
2023/07/12 06:08:11;;;;;;;2.60;2.40;;;29.00;47.90;;;;;;5148051;27;45328;-72
2023/07/12 06:10:38;;;;;;;3.42;2.50;;;29.00;47.90;;;;;;5148108;27;45378;-72
2023/07/12 06:13:07;;;;;;;4.32;2.55;;;29.00;48.00;;;;;;5147506;27;45393;-72
2023/07/12 06:15:33;;;;;;;3.53;2.35;;;29.00;48.00;;;;;;5148244;27;45231;-72
2023/07/12 06:18:00;;;;;;;2.97;2.50;;;29.00;48.70;;;;;;5147837;27;45422;-71
2023/07/12 06:20:27;;;;;;;5.03;3.10;;;28.90;48.00;;;;;;5147352;27;45397;-73
2023/07/12 06:22:54;;;;;;;5.47;2.85;;;28.90;50.40;;;;;;5147409;27;45382;-72
2023/07/12 06:25:21;;;;;;;6.07;3.28;;;28.90;52.00;;;;;;5147748;27;45251;-72
2023/07/12 06:27:47;;;;;;;3.65;2.88;;;28.90;52.10;;;;;;5142460;27;45473;-72
2023/07/12 06:30:17;;;;;;;5.72;3.28;;;28.80;52.50;;;;;;5144101;27;45527;-72
2023/07/12 06:32:43;;;;;;;3.88;3.40;;;28.80;53.00;;;;;;5149252;27;45372;-71
2023/07/12 06:35:10;;;;;;;6.45;2.92;;;28.70;53.50;;;;;;5150901;27;45284;-71
2023/07/12 06:37:37;;;;;;;5.72;3.30;;;28.70;54.50;;;;;;5151060;27;45330;-72
2023/07/12 06:40:05;;;;;;;6.50;3.25;;;28.70;54.20;;;;;;5151278;27;45450;-72
2023/07/12 06:42:31;;;;;;;6.85;3.22;;;28.60;54.20;;;;;;5150633;27;46990;-71
2023/07/12 06:44:58;;;;;;;6.53;3.35;;;28.60;54.30;;;;;;5150561;27;45383;-72
2023/07/12 06:47:26;;;;;;;7.30;3.38;;;28.60;54.40;;;;;;5151135;27;45252;-72
2023/07/12 06:49:53;;;;;;;8.13;3.60;;;28.50;55.10;;;;;;5151151;27;45177;-73
2023/07/12 06:52:20;;;;;;;4.50;3.45;;;28.50;54.60;;;;;;5150420;27;46881;-73
2023/07/12 06:54:47;;;;;;;6.70;3.58;;;28.50;54.70;;;;;;5150490;27;45291;-73
2023/07/12 06:57:14;;;;;;;5.50;3.30;;;28.50;54.90;;;;;;5150817;27;45271;-72
2023/07/12 06:59:41;;;;;;;6.80;3.40;;;28.50;55.00;;;;;;5150833;27;45505;-73
2023/07/12 07:02:09;;;;;;;4.13;3.13;;;28.40;54.80;;;;;;5150625;27;45350;-72
2023/07/12 07:04:38;;;;;;;5.40;3.03;;;28.50;54.90;;;;;;5149554;27;45386;-71
2023/07/12 07:07:05;;;;;;;5.43;3.35;;;28.50;54.90;;;;;;5150080;27;45466;-72
2023/07/12 07:09:33;;;;;;;5.68;3.03;;;28.50;55.00;;;;;;5150895;27;45331;-72
2023/07/12 07:12:00;;;;;;;5.25;3.70;;;28.50;55.00;;;;;;5150418;27;46672;-72
2023/07/12 07:14:27;;;;;;;5.22;3.55;;;28.50;55.00;;;;;;5150218;27;45332;-72
2023/07/12 07:16:54;;;;;;;10.07;3.67;;;28.50;55.10;;;;;;5150384;27;45385;-71
2023/07/12 07:19:21;;;;;;;6.43;3.63;;;28.50;55.00;;;;;;5151012;27;45426;-73
2023/07/12 07:21:51;;;;;;;4.05;3.17;;;28.50;55.10;;;;;;5134824;27;46387;-72
2023/07/12 07:24:17;;;;;;;4.63;3.15;;;28.50;55.00;;;;;;5136262;27;45814;-73
2023/07/12 07:26:44;;;;;;;4.95;3.10;;;28.60;54.90;;;;;;5142866;27;45405;-74
2023/07/12 07:29:11;;;;;;;6.82;3.50;;;28.50;54.70;;;;;;5122246;27;45559;-73
2023/07/12 07:31:38;;;;;;;6.70;3.40;;;28.60;54.90;;;;;;5127640;27;45316;-73
2023/07/12 07:34:05;;;;;;;4.35;3.05;;;28.60;54.90;;;;;;5129032;27;45448;-73
2023/07/12 07:36:32;;;;;;;5.05;3.53;;;28.60;55.10;;;;;;5150354;27;45328;-73
2023/07/12 07:39:00;;;;;;;5.13;3.50;;;28.60;55.30;;;;;;5150485;27;45320;-74
2023/07/12 07:41:27;;;;;;;4.47;2.92;;;28.60;55.30;;;;;;5149878;27;46726;-73
2023/07/12 07:43:54;;;;;;;6.43;3.60;;;28.60;54.90;;;;;;5149107;27;45253;-73
2023/07/12 07:46:22;;;;;;;5.30;3.25;;;28.60;54.70;;;;;;5148956;27;45311;-73
2023/07/12 07:48:49;;;;;;;4.88;3.08;;;28.60;54.50;;;;;;5149734;27;45592;-72
2023/07/12 07:51:16;;;;;;;3.50;3.20;;;28.60;54.70;;;;;;5149271;27;46392;-72
2023/07/12 07:53:43;;;;;;;3.20;2.90;;;28.60;54.80;;;;;;5149283;27;45334;-72
2023/07/12 07:56:11;;;;;;;4.63;3.28;;;28.60;54.70;;;;;;5149436;27;45273;-72
2023/07/12 07:58:38;;;;;;;3.97;2.97;;;28.60;54.30;;;;;;5150180;27;45411;-72
2023/07/12 08:01:05;;;;;;;5.40;3.20;;;28.70;54.00;;;;;;5149397;27;46466;-73
2023/07/12 08:03:32;;;;;;;6.07;3.38;;;28.70;53.70;;;;;;5149393;27;45465;-72
2023/07/12 08:06:01;;;;;;;4.70;3.00;;;28.80;54.10;;;;;;5149510;27;45283;-74
2023/07/12 08:08:28;;;;;;;6.07;2.72;;;28.80;53.10;;;;;;5149556;27;45359;-72
2023/07/12 08:10:55;;;;;;;6.88;3.22;;;28.90;53.10;;;;;;5149001;27;46671;-72
2023/07/12 08:13:23;;;;;;;3.38;3.00;;;28.90;52.80;;;;;;5148358;27;45325;-72
2023/07/12 08:15:50;;;;;;;3.60;2.90;;;29.00;52.70;;;;;;5148862;27;45297;-72
2023/07/12 08:18:17;;;;;;;5.88;3.05;;;29.00;52.40;;;;;;5149825;27;45373;-72
2023/07/12 08:20:44;;;;;;;7.05;3.33;;;29.10;52.30;;;;;;5148828;27;45371;-72
2023/07/12 08:23:11;;;;;;;5.22;2.90;;;29.10;52.00;;;;;;5148986;27;45446;-72
2023/07/12 08:25:37;;;;;;;5.32;2.97;;;29.10;52.00;;;;;;5148920;27;45318;-72
2023/07/12 08:28:05;;;;;;;4.97;2.60;;;29.20;51.80;;;;;;5149042;27;45461;-71
2023/07/12 08:30:33;;;;;;;3.38;2.90;;;29.20;51.60;;;;;;5148803;27;46717;-71
2023/07/12 08:33:00;;;;;;;5.55;2.72;;;29.20;51.50;;;;;;5148880;27;45380;-71
2023/07/12 08:35:27;;;;;;;3.25;2.95;;;29.20;51.30;;;;;;5149021;27;45343;-72
2023/07/12 08:37:55;;;;;;;5.60;2.72;;;29.30;51.30;;;;;;5149074;27;45248;-73
2023/07/12 08:40:22;;;;;;;4.20;2.95;;;29.30;51.80;;;;;;5148637;27;46813;-72
2023/07/12 08:42:49;;;;;;;3.33;2.65;;;29.30;51.10;;;;;;5148718;27;45375;-72
2023/07/12 08:45:20;;;;;;;3.92;2.83;;;29.30;51.00;;;;;;5148806;27;45311;-71
2023/07/12 08:47:49;;;;;;;4.32;2.55;;;29.40;50.90;;;;;;5148923;27;45403;-71
2023/07/12 08:50:16;;;;;;;3.15;2.53;;;29.40;50.80;;;;;;5148570;27;45725;-71
2023/07/12 08:52:44;;;;;;;3.08;2.53;;;29.40;50.70;;;;;;5148280;27;45261;-73
2023/07/12 08:55:14;;;;;;;4.78;2.75;;;29.40;50.70;;;;;;5147626;27;45271;-72
2023/07/12 08:57:41;;;;;;;3.58;2.42;;;29.40;50.70;;;;;;5148599;27;45572;-72
2023/07/12 09:00:10;;;;;;;3.88;2.50;;;29.40;50.60;;;;;;5148188;27;45483;-72
2023/07/12 09:02:37;;;;;;;2.65;2.40;;;29.40;50.60;;;;;;5148252;27;45359;-72
2023/07/12 09:05:14;;;;;;;4.50;2.47;;;29.50;50.50;;;;;;5147562;27;45338;-73
2023/07/12 09:07:45;;;;;;;3.10;2.80;;;29.50;50.40;;;;;;5147786;27;45500;-72
2023/07/12 09:10:12;;;;;;;3.00;2.70;;;29.50;50.40;;;;;;5147300;27;46675;-72
2023/07/12 09:12:39;;;;;;;3.60;2.30;;;29.60;50.30;;;;;;5148276;27;45549;-72
2023/07/12 09:15:10;;;;;;;6.47;3.15;;;29.60;50.30;;;;;;5148340;27;45407;-73
2023/07/12 09:17:42;;;;;;;5.43;2.85;;;29.60;50.40;;;;;;5148575;27;45322;-72
2023/07/12 09:20:22;;;;;;;4.65;2.47;;;29.60;50.40;;;;;;5148011;27;45467;-73
2023/07/12 09:22:50;;;;;;;3.88;2.58;;;29.60;50.20;;;;;;5148110;27;45377;-72
2023/07/12 09:25:21;;;;;;;2.90;2.60;;;29.60;50.10;;;;;;5148281;27;45356;-72
2023/07/12 09:27:48;;;;;;;3.60;2.58;;;29.60;49.80;;;;;;5148290;27;45687;-73
2023/07/12 09:30:18;;;;;;;3.05;2.75;;;29.60;50.00;;;;;;5148001;27;46684;-74
2023/07/12 09:32:48;;;;;;;3.10;2.55;;;29.70;50.10;;;;;;5148061;27;45270;-74
2023/07/12 09:35:28;;;;;;;5.72;2.38;;;29.70;50.30;;;;;;5148162;27;45488;-73
2023/07/12 09:37:58;;;;;;;4.07;2.65;;;29.70;50.40;;;;;;5148145;27;44726;-73
2023/07/12 09:40:25;;;;;;;4.63;2.40;;;29.70;50.50;;;;;;5147820;27;46690;-73
2023/07/12 09:42:56;;;;;;;4.43;2.88;;;29.70;50.70;;;;;;5147891;27;45336;-72
2023/07/12 09:45:23;;;;;;;3.42;2.88;;;29.70;50.60;;;;;;5147852;27;45429;-73
2023/07/12 09:47:56;;;;;;;3.22;2.67;;;29.70;50.40;;;;;;5148174;27;45446;-73
2023/07/12 09:50:27;;;;;;;4.07;2.55;;;29.70;50.30;;;;;;5147944;27;45358;-73
2023/07/12 09:52:58;;;;;;;4.15;2.65;;;29.80;50.40;;;;;;5147407;27;45267;-72
2023/07/12 09:55:26;;;;;;;3.28;2.58;;;29.80;50.40;;;;;;5147768;27;45414;-72
2023/07/12 09:57:56;;;;;;;4.55;2.70;;;29.80;50.30;;;;;;5147976;27;45479;-73
2023/07/12 10:00:24;;;;;;;2.78;2.35;;;29.80;50.20;;;;;;5147665;27;45302;-73
2023/07/12 10:03:01;;;;;;;5.15;3.28;;;29.80;50.30;;;;;;5147639;27;45414;-72
2023/07/12 10:05:29;;;;;;;3.03;2.80;;;29.90;50.40;;;;;;5147809;27;45439;-73
2023/07/12 10:07:58;;;;;;;6.18;3.10;;;29.90;50.40;;;;;;5151687;27;45314;-72
2023/07/12 10:10:29;;;;;;;8.55;2.90;;;29.90;50.20;;;;;;5151281;27;46354;-73
2023/07/12 10:13:05;;;;;;;5.88;2.38;;;30.00;50.10;;;;;;5151352;27;45269;-72
2023/07/12 10:15:34;;;;;;;8.80;3.10;;;29.90;50.30;;;;;;5151400;27;45268;-72
2023/07/12 10:18:01;;;;;;;4.55;2.88;;;30.00;50.40;;;;;;5151492;27;45419;-73
2023/07/12 10:20:29;;;;;;;4.55;2.78;;;29.90;50.20;;;;;;5151208;27;46395;-72
2023/07/12 10:22:56;;;;;;;5.30;2.65;;;30.00;50.20;;;;;;5151053;27;45263;-72
2023/07/12 10:25:25;;;;;;;6.55;3.03;;;30.00;50.00;;;;;;5150554;27;45393;-72
2023/07/12 10:27:55;;;;;;;3.35;2.40;;;30.00;50.10;;;;;;5151182;27;45481;-72
2023/07/12 10:30:23;;;;;;;3.22;2.65;;;30.10;50.00;;;;;;5150973;27;46418;-73
2023/07/12 10:32:51;;;;;;;3.70;2.97;;;30.10;50.10;;;;;;5150894;27;45343;-73
2023/07/12 10:35:20;;;;;;;2.70;2.38;;;30.10;50.00;;;;;;5151048;27;45328;-72
2023/07/12 10:37:51;;;;;;;3.28;2.35;;;30.10;49.90;;;;;;5151244;27;45482;-73
2023/07/12 10:40:20;;;;;;;3.55;2.60;;;30.10;49.80;;;;;;5151566;27;45352;-73
2023/07/12 10:42:50;;;;;;;5.13;2.53;;;30.20;49.80;;;;;;5151184;27;45185;-72
2023/07/12 10:45:19;;;;;;;4.13;2.45;;;30.20;49.80;;;;;;5150909;27;45371;-73
2023/07/12 10:47:47;;;;;;;3.13;2.40;;;30.30;49.70;;;;;;5151621;27;45291;-73
2023/07/12 10:50:22;;;;;;;3.25;2.45;;;30.30;49.70;;;;;;5151343;27;46821;-72
2023/07/12 10:52:59;;;;;;;2.85;2.45;;;30.30;49.70;;;;;;5150871;27;45368;-72
2023/07/12 10:55:37;;;;;;;4.22;2.60;;;30.40;49.60;;;;;;5151473;27;45443;-73
2023/07/12 10:58:27;;;;;;;3.28;2.35;;;30.40;49.50;;;;;;5151069;27;45141;-72
2023/07/12 11:00:55;;;;;;;3.00;2.58;;;30.50;50.10;;;;;;5150696;27;45426;-73
2023/07/12 11:03:22;;;;;;;2.83;2.17;;;30.60;49.30;;;;;;5150669;27;45374;-73
2023/07/12 11:05:59;;;;;;;3.35;2.67;;;30.60;49.10;;;;;;5150791;27;45281;-73
2023/07/12 11:08:39;;;;;;;2.53;2.33;;;30.60;48.90;;;;;;5151056;27;45380;-73
2023/07/12 11:11:35;;;;;;;2.88;2.35;;;30.70;49.10;;;;;;5150323;27;46780;-73
2023/07/12 11:14:19;;;;;;;4.93;1.98;;;30.70;49.10;;;;;;5150383;27;45331;-71
2023/07/12 11:16:49;;;;;;;2.30;2.10;;;30.80;49.00;;;;;;5150383;27;45395;-71
2023/07/12 11:19:44;;;;;;;3.95;2.63;;;30.90;49.00;;;;;;5128831;27;45321;-71
2023/07/12 11:22:17;;;;;;;2.30;2.10;;;30.90;49.10;;;;;;5129151;27;45238;-72
2023/07/12 11:24:56;;;;;;;4.80;2.13;;;30.90;49.20;;;;;;5129326;27;45346;-72
2023/07/12 11:27:39;;;;;;;3.00;2.05;;;30.90;49.30;;;;;;5129457;27;45371;-71
2023/07/12 11:30:16;;;;;;;2.97;2.33;;;30.90;48.50;;;;;;5128911;27;45559;-71
2023/07/12 11:32:43;;;;;;;2.53;2.28;;;30.90;48.00;;;;;;5128230;27;48292;-72
2023/07/12 11:35:12;;;;;;;3.58;2.63;;;31.00;48.60;;;;;;5129051;27;45532;-72
2023/07/12 11:37:42;;;;;;;2.80;2.30;;;31.00;48.80;;;;;;5129260;27;45257;-73
2023/07/12 11:40:19;;;;;;;2.42;2.22;;;31.00;48.60;;;;;;5129334;27;45333;-73
2023/07/12 11:42:46;;;;;;;3.05;2.20;;;31.00;48.60;;;;;;5129228;27;45410;-73
2023/07/12 11:45:15;;;;;;;3.38;2.40;;;31.00;48.70;;;;;;5129536;27;45325;-73
2023/07/12 11:47:42;;;;;;;2.30;1.92;;;31.00;48.20;;;;;;5129714;27;45350;-73
2023/07/12 11:50:10;;;;;;;3.00;2.00;;;31.00;47.30;;;;;;5129934;27;45356;-71
2023/07/12 11:52:36;;;;;;;3.13;2.10;;;31.00;47.30;;;;;;5128731;27;47293;-71
2023/07/12 11:55:05;;;;;;;5.30;2.60;;;30.90;47.60;;;;;;5129435;27;45361;-72
2023/07/12 11:57:40;;;;;;;2.22;2.03;;;30.90;47.60;;;;;;5130236;27;45230;-71
2023/07/12 12:00:14;;;;;;;4.40;2.25;;;30.90;47.10;;;;;;5129272;27;45497;-73
2023/07/12 12:02:41;;;;;;;3.08;1.90;;;31.00;47.60;;;;;;5128817;27;45264;-72
2023/07/12 12:05:16;;;;;;;3.08;2.20;;;31.00;47.80;;;;;;5128822;27;45321;-72
2023/07/12 12:07:42;;;;;;;3.08;2.08;;;31.00;47.80;;;;;;5126092;27;45276;-72
2023/07/12 12:10:16;;;;;;;2.60;2.40;;;31.00;47.60;;;;;;5128909;27;45295;-72
2023/07/12 12:12:44;;;;;;;4.20;2.40;;;31.00;47.50;;;;;;5128533;27;45233;-72
2023/07/12 12:15:17;;;;;;;3.30;2.42;;;31.00;47.80;;;;;;5127874;27;45332;-73
2023/07/12 12:17:45;;;;;;;3.35;2.30;;;31.00;47.20;;;;;;5136733;27;45284;-73
2023/07/12 12:20:14;;;;;;;2.90;2.38;;;31.00;46.90;;;;;;5149757;27;45373;-73
2023/07/12 12:22:41;;;;;;;4.45;2.50;;;31.00;47.00;;;;;;5149264;27;45366;-72
2023/07/12 12:25:17;;;;;;;3.67;2.40;;;31.00;47.00;;;;;;5149109;27;45277;-73
2023/07/12 12:27:45;;;;;;;6.15;2.70;;;31.00;47.40;;;;;;5149365;27;45280;-73
2023/07/12 12:30:22;;;;;;;3.08;2.45;;;31.00;47.10;;;;;;5149371;27;45564;-72
2023/07/12 12:33:00;;;;;;;3.13;2.42;;;31.00;47.50;;;;;;5148913;27;45437;-73
2023/07/12 12:35:26;;;;;;;2.90;2.10;;;31.00;47.50;;;;;;5148957;27;45291;-73
2023/07/12 12:37:57;;;;;;;2.38;2.10;;;31.00;47.50;;;;;;5149300;27;45229;-73
2023/07/12 12:40:24;;;;;;;2.92;2.13;;;31.10;47.60;;;;;;5149291;27;45337;-73
2023/07/12 12:42:59;;;;;;;4.32;2.50;;;31.10;47.80;;;;;;5148794;27;46351;-71
2023/07/12 12:45:28;;;;;;;2.20;2.00;;;31.00;47.40;;;;;;5148668;27;45313;-72
2023/07/12 12:47:54;;;;;;;2.63;2.20;;;31.10;47.40;;;;;;5148222;27;45352;-72
2023/07/12 12:50:21;;;;;;;2.60;2.40;;;31.10;47.30;;;;;;5149261;27;45323;-73
2023/07/12 12:52:49;;;;;;;3.25;2.40;;;31.10;47.30;;;;;;5148478;27;45482;-73
2023/07/12 12:55:15;;;;;;;3.30;2.50;;;31.20;47.20;;;;;;5148726;27;45329;-72